sensor_id;sensor_type;location;lat;lon;timestamp;P1;durP1;ratioP1;P2;durP2;ratioP2
21416;SDS011;10869;52.238;10.716;2023-05-10T05:44:17;7.97;;;4.50;;
21416;SDS011;10869;52.238;10.716;2023-05-10T05:46:43;7.80;;;4.00;;
21416;SDS011;10869;52.238;10.716;2023-05-10T05:51:46;9.80;;;4.17;;
21416;SDS011;10869;52.238;10.716;2023-05-10T05:57:18;9.00;;;3.93;;
21416;SDS011;10869;52.238;10.716;2023-05-10T05:59:44;8.00;;;3.63;;
21416;SDS011;10869;52.238;10.716;2023-05-10T06:02:10;7.03;;;3.73;;
21416;SDS011;10869;52.238;10.716;2023-05-10T06:04:42;6.83;;;3.83;;
21416;SDS011;10869;52.238;10.716;2023-05-10T06:07:11;11.00;;;3.60;;
21416;SDS011;10869;52.238;10.716;2023-05-10T06:09:37;8.53;;;3.97;;
21416;SDS011;10869;52.238;10.716;2023-05-10T06:12:03;7.37;;;4.10;;
21416;SDS011;10869;52.238;10.716;2023-05-10T06:14:29;8.50;;;3.90;;
21416;SDS011;10869;52.238;10.716;2023-05-10T06:16:54;7.40;;;3.80;;
21416;SDS011;10869;52.238;10.716;2023-05-10T06:19:20;7.53;;;4.10;;
21416;SDS011;10869;52.238;10.716;2023-05-10T06:21:46;8.43;;;4.00;;
21416;SDS011;10869;52.238;10.716;2023-05-10T06:27:35;12.53;;;4.60;;
21416;SDS011;10869;52.238;10.716;2023-05-10T06:33:23;6.10;;;3.40;;
21416;SDS011;10869;52.238;10.716;2023-05-10T06:39:10;7.47;;;4.13;;
21416;SDS011;10869;52.238;10.716;2023-05-10T06:44:58;6.47;;;3.77;;
21416;SDS011;10869;52.238;10.716;2023-05-10T06:47:24;7.23;;;3.90;;
21416;SDS011;10869;52.238;10.716;2023-05-10T06:53:12;8.57;;;3.77;;
21416;SDS011;10869;52.238;10.716;2023-05-10T06:55:38;5.90;;;3.73;;
21416;SDS011;10869;52.238;10.716;2023-05-10T07:01:26;7.13;;;3.80;;
21416;SDS011;10869;52.238;10.716;2023-05-10T07:03:52;6.97;;;3.50;;
21416;SDS011;10869;52.238;10.716;2023-05-10T07:09:39;8.93;;;3.37;;
21416;SDS011;10869;52.238;10.716;2023-05-10T07:15:27;8.70;;;4.13;;
21416;SDS011;10869;52.238;10.716;2023-05-10T07:21:15;9.70;;;4.20;;
21416;SDS011;10869;52.238;10.716;2023-05-10T07:27:03;5.93;;;3.57;;
21416;SDS011;10869;52.238;10.716;2023-05-10T07:32:51;9.60;;;4.60;;
21416;SDS011;10869;52.238;10.716;2023-05-10T07:35:27;10.10;;;4.60;;
21416;SDS011;10869;52.238;10.716;2023-05-10T07:41:17;8.03;;;4.87;;
21416;SDS011;10869;52.238;10.716;2023-05-10T07:43:49;10.10;;;5.30;;
21416;SDS011;10869;52.238;10.716;2023-05-10T07:46:15;8.27;;;4.80;;
21416;SDS011;10869;52.238;10.716;2023-05-10T07:48:41;7.97;;;5.40;;
21416;SDS011;10869;52.238;10.716;2023-05-10T07:54:29;8.10;;;5.50;;
21416;SDS011;10869;52.238;10.716;2023-05-10T07:56:54;9.03;;;5.60;;
21416;SDS011;10869;52.238;10.716;2023-05-10T07:59:20;12.07;;;6.73;;
21416;SDS011;10869;52.238;10.716;2023-05-10T08:01:46;10.57;;;6.00;;
21416;SDS011;10869;52.238;10.716;2023-05-10T08:04:12;8.70;;;5.63;;
21416;SDS011;10869;52.238;10.716;2023-05-10T08:10:00;10.80;;;6.80;;
21416;SDS011;10869;52.238;10.716;2023-05-10T08:12:26;9.33;;;6.70;;
21416;SDS011;10869;52.238;10.716;2023-05-10T08:18:13;9.17;;;6.20;;
21416;SDS011;10869;52.238;10.716;2023-05-10T08:20:39;9.70;;;5.87;;
21416;SDS011;10869;52.238;10.716;2023-05-10T08:23:05;9.07;;;6.53;;
21416;SDS011;10869;52.238;10.716;2023-05-10T08:25:31;9.97;;;5.33;;
21416;SDS011;10869;52.238;10.716;2023-05-10T08:27:56;9.60;;;5.47;;
21416;SDS011;10869;52.238;10.716;2023-05-10T08:33:45;9.17;;;5.77;;
21416;SDS011;10869;52.238;10.716;2023-05-10T08:39:36;8.30;;;5.77;;
21416;SDS011;10869;52.238;10.716;2023-05-10T08:45:24;10.03;;;6.07;;
21416;SDS011;10869;52.238;10.716;2023-05-10T08:47:52;10.07;;;5.77;;
21416;SDS011;10869;52.238;10.716;2023-05-10T08:50:19;11.30;;;6.77;;
21416;SDS011;10869;52.238;10.716;2023-05-10T08:52:46;14.27;;;7.33;;
21416;SDS011;10869;52.238;10.716;2023-05-10T08:55:15;11.10;;;7.13;;
21416;SDS011;10869;52.238;10.716;2023-05-10T08:57:41;13.20;;;7.80;;
21416;SDS011;10869;52.238;10.716;2023-05-10T09:00:07;10.47;;;7.23;;
21416;SDS011;10869;52.238;10.716;2023-05-10T09:05:55;11.97;;;7.47;;
21416;SDS011;10869;52.238;10.716;2023-05-10T09:08:22;13.37;;;7.90;;
21416;SDS011;10869;52.238;10.716;2023-05-10T09:10:52;8.63;;;5.70;;
21416;SDS011;10869;52.238;10.716;2023-05-10T09:13:19;8.87;;;6.20;;
21416;SDS011;10869;52.238;10.716;2023-05-10T09:15:47;7.63;;;5.30;;
21416;SDS011;10869;52.238;10.716;2023-05-10T09:18:13;8.10;;;5.17;;
21416;SDS011;10869;52.238;10.716;2023-05-10T09:20:39;8.63;;;6.00;;
21416;SDS011;10869;52.238;10.716;2023-05-10T09:23:05;8.27;;;5.87;;
21416;SDS011;10869;52.238;10.716;2023-05-10T09:25:31;8.13;;;5.50;;
21416;SDS011;10869;52.238;10.716;2023-05-10T09:28:00;8.47;;;5.70;;
21416;SDS011;10869;52.238;10.716;2023-05-10T09:30:27;11.77;;;7.10;;
21416;SDS011;10869;52.238;10.716;2023-05-10T09:32:55;12.53;;;7.57;;
21416;SDS011;10869;52.238;10.716;2023-05-10T09:35:22;9.03;;;6.40;;
21416;SDS011;10869;52.238;10.716;2023-05-10T09:37:50;11.17;;;7.67;;
21416;SDS011;10869;52.238;10.716;2023-05-10T09:40:25;10.13;;;7.23;;
21416;SDS011;10869;52.238;10.716;2023-05-10T09:42:56;13.70;;;6.93;;
21416;SDS011;10869;52.238;10.716;2023-05-10T09:45:27;10.00;;;6.90;;
21416;SDS011;10869;52.238;10.716;2023-05-10T09:47:57;11.47;;;7.80;;
21416;SDS011;10869;52.238;10.716;2023-05-10T09:50:24;10.90;;;7.83;;
21416;SDS011;10869;52.238;10.716;2023-05-10T09:55:16;10.37;;;8.03;;
21416;SDS011;10869;52.238;10.716;2023-05-10T09:57:45;11.37;;;8.90;;
21416;SDS011;10869;52.238;10.716;2023-05-10T10:00:19;12.80;;;9.43;;
21416;SDS011;10869;52.238;10.716;2023-05-10T10:02:54;11.03;;;8.77;;
21416;SDS011;10869;52.238;10.716;2023-05-10T10:05:30;11.87;;;8.30;;
21416;SDS011;10869;52.238;10.716;2023-05-10T10:07:56;11.67;;;8.77;;
21416;SDS011;10869;52.238;10.716;2023-05-10T10:13:45;16.53;;;10.30;;
21416;SDS011;10869;52.238;10.716;2023-05-10T10:16:11;16.27;;;10.33;;
21416;SDS011;10869;52.238;10.716;2023-05-10T10:18:37;14.03;;;10.23;;
21416;SDS011;10869;52.238;10.716;2023-05-10T10:24:33;12.77;;;10.27;;
21416;SDS011;10869;52.238;10.716;2023-05-10T10:27:21;9.63;;;7.80;;
21416;SDS011;10869;52.238;10.716;2023-05-10T10:30:15;11.87;;;9.63;;
21416;SDS011;10869;52.238;10.716;2023-05-10T10:35:23;8.37;;;6.30;;
21416;SDS011;10869;52.238;10.716;2023-05-10T10:41:26;8.00;;;4.83;;
21416;SDS011;10869;52.238;10.716;2023-05-10T10:47:05;9.80;;;3.63;;
21416;SDS011;10869;52.238;10.716;2023-05-10T10:52:13;4.83;;;2.80;;
21416;SDS011;10869;52.238;10.716;2023-05-10T10:55:19;3.77;;;2.20;;
21416;SDS011;10869;52.238;10.716;2023-05-10T11:00:44;4.40;;;1.80;;
21416;SDS011;10869;52.238;10.716;2023-05-10T11:03:10;4.43;;;1.70;;
21416;SDS011;10869;52.238;10.716;2023-05-10T11:13:40;2.30;;;1.50;;
21416;SDS011;10869;52.238;10.716;2023-05-10T11:16:13;2.30;;;1.17;;
21416;SDS011;10869;52.238;10.716;2023-05-10T11:18:57;2.67;;;1.20;;
21416;SDS011;10869;52.238;10.716;2023-05-10T11:21:30;2.13;;;0.93;;
21416;SDS011;10869;52.238;10.716;2023-05-10T11:23:58;1.13;;;0.90;;
21416;SDS011;10869;52.238;10.716;2023-05-10T11:26:25;1.93;;;1.23;;
21416;SDS011;10869;52.238;10.716;2023-05-10T11:28:59;2.67;;;1.50;;
21416;SDS011;10869;52.238;10.716;2023-05-10T11:31:27;3.17;;;1.83;;
21416;SDS011;10869;52.238;10.716;2023-05-10T11:33:54;2.83;;;1.60;;
21416;SDS011;10869;52.238;10.716;2023-05-10T11:39:45;4.73;;;1.80;;
21416;SDS011;10869;52.238;10.716;2023-05-10T11:45:36;4.90;;;1.73;;
21416;SDS011;10869;52.238;10.716;2023-05-10T11:48:02;2.03;;;1.40;;
21416;SDS011;10869;52.238;10.716;2023-05-10T11:50:28;2.67;;;1.07;;
21416;SDS011;10869;52.238;10.716;2023-05-10T11:52:57;1.50;;;0.80;;
21416;SDS011;10869;52.238;10.716;2023-05-10T11:55:24;2.90;;;0.90;;
21416;SDS011;10869;52.238;10.716;2023-05-10T11:57:53;1.67;;;1.00;;
21416;SDS011;10869;52.238;10.716;2023-05-10T12:00:19;1.80;;;1.07;;
21416;SDS011;10869;52.238;10.716;2023-05-10T12:02:46;1.00;;;0.90;;
21416;SDS011;10869;52.238;10.716;2023-05-10T12:05:12;2.07;;;1.10;;
21416;SDS011;10869;52.238;10.716;2023-05-10T12:07:38;1.73;;;1.10;;
21416;SDS011;10869;52.238;10.716;2023-05-10T12:10:08;3.73;;;1.80;;
21416;SDS011;10869;52.238;10.716;2023-05-10T12:15:04;2.37;;;1.60;;
21416;SDS011;10869;52.238;10.716;2023-05-10T12:17:31;4.97;;;1.70;;
21416;SDS011;10869;52.238;10.716;2023-05-10T12:22:54;2.30;;;1.47;;
21416;SDS011;10869;52.238;10.716;2023-05-10T12:25:22;3.40;;;1.33;;
21416;SDS011;10869;52.238;10.716;2023-05-10T12:27:52;1.50;;;1.00;;
21416;SDS011;10869;52.238;10.716;2023-05-10T12:30:20;2.77;;;1.30;;
21416;SDS011;10869;52.238;10.716;2023-05-10T12:32:50;2.47;;;1.30;;
21416;SDS011;10869;52.238;10.716;2023-05-10T12:35:17;2.37;;;1.20;;
21416;SDS011;10869;52.238;10.716;2023-05-10T12:37:47;3.20;;;1.10;;
21416;SDS011;10869;52.238;10.716;2023-05-10T12:40:13;2.27;;;1.10;;
21416;SDS011;10869;52.238;10.716;2023-05-10T12:42:39;1.77;;;0.90;;
21416;SDS011;10869;52.238;10.716;2023-05-10T12:45:05;2.40;;;1.17;;
21416;SDS011;10869;52.238;10.716;2023-05-10T12:47:33;1.53;;;1.23;;
21416;SDS011;10869;52.238;10.716;2023-05-10T12:49:59;2.43;;;1.10;;
21416;SDS011;10869;52.238;10.716;2023-05-10T12:52:25;1.80;;;1.07;;
21416;SDS011;10869;52.238;10.716;2023-05-10T12:54:52;1.63;;;0.87;;
21416;SDS011;10869;52.238;10.716;2023-05-10T12:57:19;1.90;;;1.20;;
21416;SDS011;10869;52.238;10.716;2023-05-10T13:03:07;2.63;;;0.90;;
21416;SDS011;10869;52.238;10.716;2023-05-10T13:05:33;2.33;;;0.70;;
21416;SDS011;10869;52.238;10.716;2023-05-10T13:07:59;2.17;;;0.80;;
21416;SDS011;10869;52.238;10.716;2023-05-10T13:10:25;2.20;;;0.87;;
21416;SDS011;10869;52.238;10.716;2023-05-10T13:12:51;3.40;;;1.20;;
21416;SDS011;10869;52.238;10.716;2023-05-10T13:15:17;2.57;;;1.03;;
21416;SDS011;10869;52.238;10.716;2023-05-10T13:17:42;1.97;;;0.90;;
21416;SDS011;10869;52.238;10.716;2023-05-10T13:20:10;2.23;;;0.83;;
21416;SDS011;10869;52.238;10.716;2023-05-10T13:22:36;0.67;;;0.53;;
21416;SDS011;10869;52.238;10.716;2023-05-10T13:25:02;3.03;;;0.90;;
21416;SDS011;10869;52.238;10.716;2023-05-10T13:27:28;2.40;;;1.00;;
21416;SDS011;10869;52.238;10.716;2023-05-10T13:29:54;1.50;;;1.03;;
21416;SDS011;10869;52.238;10.716;2023-05-10T13:32:20;1.40;;;0.90;;
21416;SDS011;10869;52.238;10.716;2023-05-10T13:34:46;3.00;;;1.20;;
21416;SDS011;10869;52.238;10.716;2023-05-10T13:37:12;2.23;;;0.90;;
21416;SDS011;10869;52.238;10.716;2023-05-10T13:39:37;2.40;;;0.90;;
21416;SDS011;10869;52.238;10.716;2023-05-10T13:42:03;2.40;;;1.10;;
21416;SDS011;10869;52.238;10.716;2023-05-10T13:47:51;1.73;;;0.97;;
21416;SDS011;10869;52.238;10.716;2023-05-10T13:50:17;1.83;;;0.70;;
21416;SDS011;10869;52.238;10.716;2023-05-10T13:52:43;2.93;;;0.97;;
21416;SDS011;10869;52.238;10.716;2023-05-10T13:55:09;3.63;;;1.00;;
21416;SDS011;10869;52.238;10.716;2023-05-10T13:57:37;2.07;;;0.93;;
21416;SDS011;10869;52.238;10.716;2023-05-10T14:00:03;3.10;;;1.07;;
21416;SDS011;10869;52.238;10.716;2023-05-10T14:02:29;2.07;;;0.80;;
21416;SDS011;10869;52.238;10.716;2023-05-10T14:04:55;2.40;;;1.00;;
21416;SDS011;10869;52.238;10.716;2023-05-10T14:07:21;2.87;;;0.90;;
21416;SDS011;10869;52.238;10.716;2023-05-10T14:09:47;1.77;;;1.10;;
21416;SDS011;10869;52.238;10.716;2023-05-10T14:15:35;2.30;;;1.03;;
21416;SDS011;10869;52.238;10.716;2023-05-10T14:18:01;4.27;;;1.23;;
21416;SDS011;10869;52.238;10.716;2023-05-10T14:20:26;5.67;;;1.00;;
21416;SDS011;10869;52.238;10.716;2023-05-10T14:22:52;1.90;;;0.80;;
21416;SDS011;10869;52.238;10.716;2023-05-10T14:25:18;2.93;;;1.20;;
21416;SDS011;10869;52.238;10.716;2023-05-10T14:27:43;2.67;;;1.33;;
21416;SDS011;10869;52.238;10.716;2023-05-10T14:30:09;5.47;;;1.30;;
21416;SDS011;10869;52.238;10.716;2023-05-10T14:32:36;3.83;;;1.10;;
21416;SDS011;10869;52.238;10.716;2023-05-10T14:35:02;4.43;;;1.20;;
21416;SDS011;10869;52.238;10.716;2023-05-10T14:37:28;2.87;;;1.23;;
21416;SDS011;10869;52.238;10.716;2023-05-10T14:39:54;4.20;;;1.30;;
21416;SDS011;10869;52.238;10.716;2023-05-10T14:42:20;4.43;;;1.00;;
21416;SDS011;10869;52.238;10.716;2023-05-10T14:44:46;3.30;;;1.10;;
21416;SDS011;10869;52.238;10.716;2023-05-10T14:47:12;4.43;;;1.27;;
21416;SDS011;10869;52.238;10.716;2023-05-10T14:49:38;3.33;;;1.10;;
21416;SDS011;10869;52.238;10.716;2023-05-10T14:52:04;3.93;;;1.00;;
21416;SDS011;10869;52.238;10.716;2023-05-10T14:54:29;3.07;;;1.23;;
21416;SDS011;10869;52.238;10.716;2023-05-10T14:56:55;2.07;;;0.97;;
21416;SDS011;10869;52.238;10.716;2023-05-10T14:59:21;3.57;;;1.10;;
21416;SDS011;10869;52.238;10.716;2023-05-10T15:01:49;2.90;;;1.50;;
21416;SDS011;10869;52.238;10.716;2023-05-10T15:04:15;3.33;;;1.57;;
21416;SDS011;10869;52.238;10.716;2023-05-10T15:06:41;2.73;;;1.20;;
21416;SDS011;10869;52.238;10.716;2023-05-10T15:09:07;4.23;;;1.30;;
21416;SDS011;10869;52.238;10.716;2023-05-10T15:11:33;2.80;;;1.30;;
21416;SDS011;10869;52.238;10.716;2023-05-10T15:14:00;3.90;;;1.57;;
21416;SDS011;10869;52.238;10.716;2023-05-10T15:16:26;3.63;;;1.57;;
21416;SDS011;10869;52.238;10.716;2023-05-10T15:22:14;4.13;;;1.17;;
21416;SDS011;10869;52.238;10.716;2023-05-10T15:24:40;4.03;;;1.60;;
21416;SDS011;10869;52.238;10.716;2023-05-10T15:27:06;4.70;;;1.67;;
21416;SDS011;10869;52.238;10.716;2023-05-10T15:29:32;5.27;;;1.50;;
21416;SDS011;10869;52.238;10.716;2023-05-10T15:31:59;5.33;;;1.70;;
21416;SDS011;10869;52.238;10.716;2023-05-10T15:34:26;3.90;;;0.97;;
21416;SDS011;10869;52.238;10.716;2023-05-10T15:36:52;3.67;;;1.20;;
21416;SDS011;10869;52.238;10.716;2023-05-10T15:39:18;3.53;;;1.30;;
21416;SDS011;10869;52.238;10.716;2023-05-10T15:41:44;4.93;;;1.37;;
21416;SDS011;10869;52.238;10.716;2023-05-10T15:44:10;2.37;;;1.10;;
21416;SDS011;10869;52.238;10.716;2023-05-10T15:46:36;3.40;;;1.00;;
21416;SDS011;10869;52.238;10.716;2023-05-10T15:49:03;3.03;;;1.17;;
21416;SDS011;10869;52.238;10.716;2023-05-10T15:51:28;3.27;;;1.13;;
21416;SDS011;10869;52.238;10.716;2023-05-10T15:53:54;4.60;;;1.20;;
21416;SDS011;10869;52.238;10.716;2023-05-10T15:56:21;2.50;;;1.30;;
21416;SDS011;10869;52.238;10.716;2023-05-10T15:58:47;5.93;;;1.53;;
21416;SDS011;10869;52.238;10.716;2023-05-10T16:01:12;4.03;;;1.33;;
21416;SDS011;10869;52.238;10.716;2023-05-10T16:03:38;4.20;;;1.20;;
21416;SDS011;10869;52.238;10.716;2023-05-10T16:06:04;4.17;;;1.20;;
21416;SDS011;10869;52.238;10.716;2023-05-10T16:08:30;3.50;;;1.40;;
21416;SDS011;10869;52.238;10.716;2023-05-10T16:10:59;3.33;;;1.10;;
21416;SDS011;10869;52.238;10.716;2023-05-10T16:13:25;4.10;;;1.50;;
21416;SDS011;10869;52.238;10.716;2023-05-10T16:15:51;3.47;;;1.40;;
21416;SDS011;10869;52.238;10.716;2023-05-10T16:18:17;2.70;;;1.20;;
21416;SDS011;10869;52.238;10.716;2023-05-10T16:20:43;4.07;;;1.80;;
21416;SDS011;10869;52.238;10.716;2023-05-10T16:23:09;5.73;;;1.73;;
21416;SDS011;10869;52.238;10.716;2023-05-10T16:25:36;4.27;;;2.30;;
21416;SDS011;10869;52.238;10.716;2023-05-10T16:28:01;5.73;;;2.87;;
21416;SDS011;10869;52.238;10.716;2023-05-10T16:30:27;7.33;;;2.73;;
21416;SDS011;10869;52.238;10.716;2023-05-10T16:32:58;5.10;;;1.93;;
21416;SDS011;10869;52.238;10.716;2023-05-10T16:35:25;4.70;;;2.10;;
21416;SDS011;10869;52.238;10.716;2023-05-10T16:37:51;4.50;;;2.00;;
21416;SDS011;10869;52.238;10.716;2023-05-10T16:40:17;4.83;;;2.20;;
21416;SDS011;10869;52.238;10.716;2023-05-10T16:42:43;5.80;;;2.40;;
21416;SDS011;10869;52.238;10.716;2023-05-10T16:45:09;4.77;;;2.17;;
21416;SDS011;10869;52.238;10.716;2023-05-10T16:47:35;6.10;;;3.03;;
21416;SDS011;10869;52.238;10.716;2023-05-10T16:50:02;4.33;;;2.33;;
21416;SDS011;10869;52.238;10.716;2023-05-10T16:52:30;4.63;;;2.50;;
21416;SDS011;10869;52.238;10.716;2023-05-10T16:54:56;5.40;;;2.90;;
21416;SDS011;10869;52.238;10.716;2023-05-10T16:57:23;4.47;;;2.67;;
21416;SDS011;10869;52.238;10.716;2023-05-10T16:59:49;5.67;;;2.93;;
21416;SDS011;10869;52.238;10.716;2023-05-10T17:02:17;4.57;;;2.60;;
21416;SDS011;10869;52.238;10.716;2023-05-10T17:04:43;4.87;;;2.80;;
21416;SDS011;10869;52.238;10.716;2023-05-10T17:07:09;6.77;;;3.50;;
21416;SDS011;10869;52.238;10.716;2023-05-10T17:09:37;5.97;;;3.23;;
21416;SDS011;10869;52.238;10.716;2023-05-10T17:18:32;4.63;;;2.80;;
21416;SDS011;10869;52.238;10.716;2023-05-10T17:20:58;4.47;;;2.60;;
21416;SDS011;10869;52.238;10.716;2023-05-10T17:23:24;5.70;;;3.23;;
21416;SDS011;10869;52.238;10.716;2023-05-10T17:25:49;5.17;;;3.10;;
21416;SDS011;10869;52.238;10.716;2023-05-10T17:28:15;6.67;;;2.97;;
21416;SDS011;10869;52.238;10.716;2023-05-10T17:30:41;7.63;;;3.20;;
21416;SDS011;10869;52.238;10.716;2023-05-10T17:33:07;6.87;;;3.60;;
21416;SDS011;10869;52.238;10.716;2023-05-10T17:35:32;10.30;;;3.73;;
21416;SDS011;10869;52.238;10.716;2023-05-10T17:37:58;7.70;;;3.40;;
21416;SDS011;10869;52.238;10.716;2023-05-10T17:40:24;6.97;;;3.27;;
21416;SDS011;10869;52.238;10.716;2023-05-10T17:42:50;4.37;;;2.73;;
21416;SDS011;10869;52.238;10.716;2023-05-10T17:45:16;6.77;;;3.60;;
21416;SDS011;10869;52.238;10.716;2023-05-10T17:47:42;6.80;;;4.00;;
21416;SDS011;10869;52.238;10.716;2023-05-10T17:50:07;5.37;;;3.77;;
21416;SDS011;10869;52.238;10.716;2023-05-10T17:52:34;7.40;;;4.20;;
21416;SDS011;10869;52.238;10.716;2023-05-10T17:55:00;7.03;;;3.80;;
21416;SDS011;10869;52.238;10.716;2023-05-10T18:00:48;6.33;;;3.97;;
21416;SDS011;10869;52.238;10.716;2023-05-10T18:03:14;8.63;;;3.70;;
21416;SDS011;10869;52.238;10.716;2023-05-10T18:09:02;6.53;;;4.17;;
21416;SDS011;10869;52.238;10.716;2023-05-10T18:14:51;6.07;;;3.77;;
21416;SDS011;10869;52.238;10.716;2023-05-10T18:17:16;5.97;;;3.63;;
21416;SDS011;10869;52.238;10.716;2023-05-10T18:19:42;8.97;;;3.37;;
21416;SDS011;10869;52.238;10.716;2023-05-10T18:22:08;5.50;;;3.40;;
21416;SDS011;10869;52.238;10.716;2023-05-10T18:24:34;7.20;;;3.20;;
21416;SDS011;10869;52.238;10.716;2023-05-10T18:30:21;7.50;;;3.80;;
21416;SDS011;10869;52.238;10.716;2023-05-10T18:32:47;6.10;;;3.57;;
21416;SDS011;10869;52.238;10.716;2023-05-10T18:35:13;9.07;;;4.40;;
21416;SDS011;10869;52.238;10.716;2023-05-10T18:41:01;6.57;;;4.27;;
21416;SDS011;10869;52.238;10.716;2023-05-10T18:43:27;5.60;;;3.87;;
21416;SDS011;10869;52.238;10.716;2023-05-10T18:49:15;8.83;;;4.73;;
21416;SDS011;10869;52.238;10.716;2023-05-10T18:51:48;7.23;;;5.20;;
21416;SDS011;10869;52.238;10.716;2023-05-10T18:54:14;8.33;;;5.17;;
21416;SDS011;10869;52.238;10.716;2023-05-10T18:56:40;7.57;;;5.63;;
21416;SDS011;10869;52.238;10.716;2023-05-10T18:59:09;8.67;;;5.53;;
21416;SDS011;10869;52.238;10.716;2023-05-10T19:04:57;10.17;;;5.70;;
21416;SDS011;10869;52.238;10.716;2023-05-10T19:07:23;9.73;;;6.33;;
21416;SDS011;10869;52.238;10.716;2023-05-10T19:09:49;8.80;;;6.20;;
21416;SDS011;10869;52.238;10.716;2023-05-10T19:15:37;8.23;;;5.77;;
21416;SDS011;10869;52.238;10.716;2023-05-10T19:18:02;9.47;;;5.30;;
21416;SDS011;10869;52.238;10.716;2023-05-10T19:23:51;10.90;;;5.77;;
21416;SDS011;10869;52.238;10.716;2023-05-10T19:26:17;7.27;;;5.13;;
21416;SDS011;10869;52.238;10.716;2023-05-10T19:28:43;8.37;;;4.57;;
21416;SDS011;10869;52.238;10.716;2023-05-10T19:34:31;8.20;;;4.93;;
21416;SDS011;10869;52.238;10.716;2023-05-10T19:36:57;8.63;;;5.43;;
21416;SDS011;10869;52.238;10.716;2023-05-10T19:39:23;10.83;;;6.10;;
21416;SDS011;10869;52.238;10.716;2023-05-10T19:41:49;11.17;;;6.00;;
21416;SDS011;10869;52.238;10.716;2023-05-10T19:47:37;9.77;;;6.73;;
21416;SDS011;10869;52.238;10.716;2023-05-10T19:50:03;8.03;;;5.83;;
21416;SDS011;10869;52.238;10.716;2023-05-10T19:52:30;10.60;;;6.20;;
21416;SDS011;10869;52.238;10.716;2023-05-10T19:54:55;8.83;;;7.10;;
21416;SDS011;10869;52.238;10.716;2023-05-10T19:57:21;9.03;;;6.17;;
21416;SDS011;10869;52.238;10.716;2023-05-10T19:59:47;8.40;;;6.20;;
21416;SDS011;10869;52.238;10.716;2023-05-10T20:02:13;11.73;;;6.37;;
21416;SDS011;10869;52.238;10.716;2023-05-10T20:04:39;13.23;;;5.87;;
21416;SDS011;10869;52.238;10.716;2023-05-10T20:07:05;11.23;;;5.70;;
21416;SDS011;10869;52.238;10.716;2023-05-10T20:09:30;9.67;;;5.50;;
21416;SDS011;10869;52.238;10.716;2023-05-10T20:11:56;8.30;;;5.37;;
21416;SDS011;10869;52.238;10.716;2023-05-10T20:14:23;10.20;;;6.27;;
21416;SDS011;10869;52.238;10.716;2023-05-10T20:16:50;11.73;;;6.30;;
21416;SDS011;10869;52.238;10.716;2023-05-10T20:19:16;9.30;;;6.27;;
21416;SDS011;10869;52.238;10.716;2023-05-10T20:21:51;8.47;;;6.37;;
21416;SDS011;10869;52.238;10.716;2023-05-10T20:27:42;8.83;;;6.43;;
21416;SDS011;10869;52.238;10.716;2023-05-10T20:33:33;9.63;;;6.87;;
21416;SDS011;10869;52.238;10.716;2023-05-10T20:36:02;22.47;;;6.83;;
21416;SDS011;10869;52.238;10.716;2023-05-10T20:38:33;12.50;;;5.97;;
21416;SDS011;10869;52.238;10.716;2023-05-10T20:41:03;8.87;;;6.20;;
21416;SDS011;10869;52.238;10.716;2023-05-10T20:43:28;8.90;;;6.30;;
21416;SDS011;10869;52.238;10.716;2023-05-10T20:45:54;10.10;;;5.93;;
21416;SDS011;10869;52.238;10.716;2023-05-10T20:48:22;9.83;;;5.83;;
21416;SDS011;10869;52.238;10.716;2023-05-10T20:50:48;10.73;;;7.40;;
21416;SDS011;10869;52.238;10.716;2023-05-10T20:53:14;11.30;;;8.67;;
21416;SDS011;10869;52.238;10.716;2023-05-10T20:55:44;12.57;;;8.57;;
21416;SDS011;10869;52.238;10.716;2023-05-10T20:58:10;11.87;;;7.90;;
21416;SDS011;10869;52.238;10.716;2023-05-10T21:00:36;9.73;;;7.20;;
21416;SDS011;10869;52.238;10.716;2023-05-10T21:03:02;11.53;;;7.10;;
21416;SDS011;10869;52.238;10.716;2023-05-10T21:05:28;10.00;;;7.20;;
21416;SDS011;10869;52.238;10.716;2023-05-10T21:07:54;11.13;;;7.83;;
21416;SDS011;10869;52.238;10.716;2023-05-10T21:10:20;10.80;;;8.20;;
21416;SDS011;10869;52.238;10.716;2023-05-10T21:12:46;11.90;;;8.60;;
21416;SDS011;10869;52.238;10.716;2023-05-10T21:15:12;10.83;;;8.67;;
21416;SDS011;10869;52.238;10.716;2023-05-10T21:17:38;14.27;;;8.30;;
21416;SDS011;10869;52.238;10.716;2023-05-10T21:20:04;10.80;;;8.70;;
21416;SDS011;10869;52.238;10.716;2023-05-10T21:22:30;10.23;;;8.00;;
21416;SDS011;10869;52.238;10.716;2023-05-10T21:24:58;11.03;;;8.17;;
21416;SDS011;10869;52.238;10.716;2023-05-10T21:27:24;12.23;;;8.10;;
21416;SDS011;10869;52.238;10.716;2023-05-10T21:29:51;10.37;;;8.37;;
21416;SDS011;10869;52.238;10.716;2023-05-10T21:32:17;10.73;;;8.50;;
21416;SDS011;10869;52.238;10.716;2023-05-10T21:34:43;13.83;;;10.20;;
21416;SDS011;10869;52.238;10.716;2023-05-10T21:37:08;10.53;;;9.43;;
21416;SDS011;10869;52.238;10.716;2023-05-10T21:39:34;12.47;;;9.30;;
21416;SDS011;10869;52.238;10.716;2023-05-10T21:42:00;11.87;;;8.10;;
21416;SDS011;10869;52.238;10.716;2023-05-10T21:44:27;10.50;;;8.93;;
21416;SDS011;10869;52.238;10.716;2023-05-10T21:46:53;16.90;;;8.03;;
21416;SDS011;10869;52.238;10.716;2023-05-10T21:49:19;15.70;;;7.73;;
21416;SDS011;10869;52.238;10.716;2023-05-10T21:51:45;9.33;;;7.33;;
21416;SDS011;10869;52.238;10.716;2023-05-10T21:54:11;12.70;;;8.40;;
21416;SDS011;10869;52.238;10.716;2023-05-10T21:56:37;10.97;;;8.73;;
21416;SDS011;10869;52.238;10.716;2023-05-10T21:59:03;11.33;;;9.27;;
21416;SDS011;10869;52.238;10.716;2023-05-10T22:01:28;10.50;;;8.93;;
21416;SDS011;10869;52.238;10.716;2023-05-10T22:03:54;10.67;;;7.40;;
21416;SDS011;10869;52.238;10.716;2023-05-10T22:06:20;9.13;;;7.50;;
21416;SDS011;10869;52.238;10.716;2023-05-10T22:08:46;9.00;;;7.53;;
21416;SDS011;10869;52.238;10.716;2023-05-10T22:11:12;9.00;;;7.77;;
21416;SDS011;10869;52.238;10.716;2023-05-10T22:13:38;9.63;;;7.67;;
21416;SDS011;10869;52.238;10.716;2023-05-10T22:16:04;11.83;;;7.53;;
21416;SDS011;10869;52.238;10.716;2023-05-10T22:18:30;10.33;;;8.57;;
21416;SDS011;10869;52.238;10.716;2023-05-10T22:20:56;11.60;;;8.70;;
21416;SDS011;10869;52.238;10.716;2023-05-10T22:23:22;11.73;;;8.73;;
21416;SDS011;10869;52.238;10.716;2023-05-10T22:25:48;11.90;;;8.17;;
21416;SDS011;10869;52.238;10.716;2023-05-10T22:28:14;11.77;;;9.50;;
21416;SDS011;10869;52.238;10.716;2023-05-10T22:30:41;14.10;;;10.47;;
21416;SDS011;10869;52.238;10.716;2023-05-10T22:33:07;14.37;;;11.87;;
21416;SDS011;10869;52.238;10.716;2023-05-10T22:35:33;15.87;;;12.50;;
21416;SDS011;10869;52.238;10.716;2023-05-10T22:37:59;12.43;;;10.73;;
21416;SDS011;10869;52.238;10.716;2023-05-10T22:40:25;15.83;;;12.40;;
21416;SDS011;10869;52.238;10.716;2023-05-10T22:42:51;12.77;;;11.30;;
21416;SDS011;10869;52.238;10.716;2023-05-10T22:45:17;13.70;;;11.43;;
21416;SDS011;10869;52.238;10.716;2023-05-10T22:47:43;16.50;;;11.50;;
21416;SDS011;10869;52.238;10.716;2023-05-10T22:50:09;12.80;;;10.83;;
21416;SDS011;10869;52.238;10.716;2023-05-10T22:52:36;15.93;;;10.23;;
21416;SDS011;10869;52.238;10.716;2023-05-10T22:55:03;11.90;;;9.97;;
21416;SDS011;10869;52.238;10.716;2023-05-10T22:57:30;14.80;;;11.53;;
21416;SDS011;10869;52.238;10.716;2023-05-10T22:59:57;13.47;;;10.70;;
